.
WxDataArchive / Data Records for 2013-03-06
2013-03-05 March 2013 2013-03-07

Data Records for Wednesday, 06 March 2013

Time	Temp	Chill	HIndex	Humid	Dewpt	 Wind 	HiWind	WindDir	Rain 	Barom 
-----	----	-----	------	-----	-----	------	------	-------	-----	----- 
00:00	28.4	28.4	28.4	95	27.2	2	5	0	0.00	29.785 
00:05	28.4	28.4	28.4	95	27.2	2	7	68	0.00	29.785 
00:10	28.4	28.4	28.4	95	27.2	1	6	112	0.00	29.785 
00:15	28.2	28.2	28.2	95	27.0	2	9	112	0.00	29.788 
00:20	28.2	28.2	28.2	95	27.0	2	7	45	0.00	29.788 
00:25	28.2	28.2	28.2	95	27.0	1	4	0	0.00	29.788 
00:30	28.1	28.1	28.1	95	26.9	2	5	0	0.00	29.792 
00:35	28.1	28.1	28.1	95	26.9	2	6	45	0.00	29.792 
00:40	27.9	27.9	27.9	95	26.7	1	4	22	0.00	29.792 
00:45	27.9	27.9	27.9	95	26.7	1	5	0	0.00	29.793 
00:50	27.8	27.8	27.8	95	26.6	2	5	0	0.00	29.793 
00:55	27.8	27.8	27.8	95	26.6	2	6	338	0.00	29.793 
01:00	27.6	27.6	27.6	95	26.4	2	5	0	0.00	29.799 
01:05	27.6	27.6	27.6	95	26.4	2	5	338	0.00	29.799 
01:10	27.6	27.6	27.6	95	26.4	1	4	0	0.00	29.799 
01:15	27.5	27.5	27.5	94	26.0	2	7	0	0.00	29.805 
01:20	27.3	27.3	27.3	94	25.8	3	10	338	0.00	29.805 
01:25	27.2	27.2	27.2	94	25.7	1	7	0	0.00	29.805 
01:30	27.2	27.2	27.2	94	25.7	1	4	338	0.00	29.811 
01:35	27.0	27.0	27.0	94	25.5	2	4	0	0.00	29.811 
01:40	27.0	27.0	27.0	94	25.5	1	4	338	0.00	29.811 
01:45	26.7	26.7	26.7	94	25.2	2	6	0	0.00	29.822 
01:50	26.7	26.7	26.7	94	25.2	2	7	0	0.00	29.822 
01:55	26.6	26.6	26.6	94	25.1	2	7	338	0.00	29.822 
02:00	26.6	26.6	26.6	94	25.1	1	3	338	0.00	29.827 
02:05	26.4	26.4	26.4	94	24.9	2	4	338	0.00	29.827 
02:10	26.4	26.4	26.4	94	24.9	1	5	315	0.00	29.827 
02:15	26.3	26.3	26.3	94	24.8	2	7	0	0.00	29.838 
02:20	26.3	26.3	26.3	94	24.8	2	4	338	0.00	29.838 
02:25	26.3	26.3	26.3	94	24.8	2	6	338	0.00	29.838 
02:30	26.3	26.3	26.3	94	24.8	2	5	338	0.00	29.841 
02:35	26.3	26.3	26.3	93	24.6	3	6	338	0.00	29.841 
02:40	26.3	26.3	26.3	93	24.6	2	5	338	0.00	29.841 
02:45	26.3	26.3	26.3	93	24.6	3	6	338	0.00	29.841 
02:50	26.1	26.1	26.1	93	24.4	2	4	0	0.00	29.841 
02:55	26.1	26.1	26.1	93	24.4	3	7	0	0.00	29.841 
03:00	26.1	26.1	26.1	92	24.1	2	4	315	0.00	29.843 
03:05	26.1	26.1	26.1	92	24.1	3	7	338	0.00	29.843 
03:10	26.0	26.0	26.0	92	24.0	1	4	315	0.00	29.843 
03:15	26.0	26.0	26.0	92	24.0	2	5	338	0.00	29.848 
03:20	25.8	25.8	25.8	92	23.8	3	8	0	0.00	29.848 
03:25	25.8	25.8	25.8	92	23.8	3	6	338	0.00	29.848 
03:30	25.7	25.7	25.7	92	23.7	3	7	0	0.00	29.850 
03:35	25.7	25.7	25.7	91	23.4	2	4	315	0.00	29.850 
03:40	25.6	25.6	25.6	91	23.3	2	5	338	0.00	29.850 
03:45	25.6	25.6	25.6	91	23.3	3	7	0	0.00	29.859 
03:50	25.6	25.6	25.6	91	23.3	3	6	338	0.00	29.859 
03:55	25.6	25.6	25.6	91	23.3	2	5	315	0.00	29.859 
04:00	25.6	25.6	25.6	91	23.3	3	6	0	0.00	29.869 
04:05	25.6	25.6	25.6	91	23.3	2	5	338	0.00	29.869 
04:10	25.6	25.6	25.6	91	23.3	2	6	315	0.00	29.869 
04:15	25.6	25.6	25.6	91	23.3	2	4	315	0.00	29.876 
04:20	25.6	25.6	25.6	91	23.3	2	4	338	0.00	29.876 
04:25	25.6	25.6	25.6	91	23.3	2	4	315	0.00	29.876 
04:30	25.7	25.7	25.7	90	23.2	1	4	315	0.00	29.888 
04:35	25.7	25.7	25.7	90	23.2	2	4	0	0.00	29.888 
04:40	25.7	25.7	25.7	90	23.2	1	5	338	0.00	29.888 
04:45	25.7	25.7	25.7	90	23.2	2	5	0	0.00	29.892 
04:50	25.7	25.7	25.7	90	23.2	1	4	270	0.00	29.892 
04:55	25.7	25.7	25.7	90	23.2	1	4	338	0.00	29.892 
05:00	25.6	25.6	25.6	90	23.1	1	4	338	0.00	29.906 
05:05	25.6	25.6	25.6	90	23.1	1	3	338	0.00	29.906 
05:10	25.6	25.6	25.6	90	23.1	1	4	338	0.00	29.906 
05:15	25.4	25.4	25.4	90	22.9	1	4	338	0.00	29.922 
05:20	25.4	25.4	25.4	90	22.9	1	4	315	0.00	29.922 
05:25	25.4	25.4	25.4	90	22.9	1	3	0	0.00	29.922 
05:30	25.3	25.3	25.3	90	22.8	0	2	0	0.00	29.936 
05:35	25.1	25.1	25.1	90	22.6	1	3	0	0.00	29.936 
05:40	25.3	25.3	25.3	90	22.8	1	3	0	0.00	29.936 
05:45	25.4	25.4	25.4	90	22.9	1	3	0	0.00	29.950 
05:50	25.6	25.6	25.6	91	23.3	1	3	315	0.00	29.950 
05:55	25.7	25.7	25.7	91	23.4	2	4	315	0.00	29.950 
06:00	25.8	25.8	25.8	91	23.5	1	3	315	0.00	29.962 
06:05	26.0	26.0	26.0	90	23.5	2	3	315	0.00	29.962 
06:10	26.0	26.0	26.0	90	23.5	2	6	0	0.00	29.962 
06:15	26.1	26.1	26.1	90	23.6	1	3	338	0.00	29.971 
06:20	26.1	26.1	26.1	90	23.6	2	5	338	0.00	29.971 
06:25	26.1	26.1	26.1	90	23.6	1	3	338	0.00	29.971 
06:30	26.1	26.1	26.1	90	23.6	1	4	292	0.00	29.981 
06:35	26.3	26.3	26.3	90	23.8	1	7	315	0.00	29.981 
06:40	26.4	26.4	26.4	90	23.9	1	4	315	0.00	29.981 
06:45	26.6	26.6	26.6	90	24.1	2	5	0	0.00	29.989 
06:50	26.7	26.7	26.7	90	24.2	2	7	338	0.00	29.989 
06:55	26.9	26.9	26.9	90	24.4	1	6	338	0.00	29.989 
07:00	26.9	26.9	26.9	90	24.4	2	7	22	0.00	30.002 
07:05	26.9	26.9	26.9	90	24.4	2	4	338	0.00	30.002 
07:10	26.9	26.9	26.9	90	24.4	1	4	338	0.00	30.002 
07:15	26.9	26.9	26.9	90	24.4	2	5	315	0.00	30.016 
07:20	26.9	26.9	26.9	90	24.4	1	3	338	0.00	30.016 
07:25	26.9	26.9	26.9	90	24.4	1	4	338	0.00	30.016 
07:30	27.0	27.0	27.0	90	24.5	1	4	0	0.00	30.023 
07:35	27.0	27.0	27.0	90	24.5	1	3	338	0.00	30.023 
07:40	27.0	27.0	27.0	90	24.5	2	3	338	0.00	30.023 
07:45	27.2	27.2	27.2	90	24.7	1	3	0	0.00	30.037 
07:50	27.2	27.2	27.2	90	24.7	2	6	338	0.00	30.037 
07:55	27.2	27.2	27.2	90	24.7	2	5	338	0.00	30.037 
08:00	27.3	27.3	27.3	89	24.5	2	5	338	0.00	30.050 
08:05	27.3	27.3	27.3	89	24.5	2	4	315	0.00	30.050 
08:10	27.5	27.5	27.5	89	24.7	1	3	0	0.00	30.050 
08:15	27.5	27.5	27.5	89	24.7	2	6	338	0.00	30.061 
08:20	27.6	27.6	27.6	89	24.8	2	4	0	0.00	30.061 
08:25	27.8	27.8	27.8	89	25.0	2	4	338	0.00	30.061 
08:30	27.8	27.8	27.8	89	25.0	1	4	315	0.00	30.073 
08:35	27.9	27.9	27.9	89	25.1	1	3	292	0.00	30.073 
08:40	27.9	27.9	27.9	89	25.1	1	4	338	0.00	30.073 
08:45	28.1	28.1	28.1	89	25.3	1	4	270	0.00	30.081 
08:50	28.1	28.1	28.1	89	25.3	2	5	338	0.00	30.081 
08:55	28.1	28.1	28.1	89	25.3	2	4	315	0.00	30.081 
09:00	28.2	28.2	28.2	89	25.4	1	4	338	0.00	30.089 
09:05	28.2	28.2	28.2	89	25.4	2	4	338	0.00	30.089 
09:10	28.4	28.4	28.4	89	25.6	1	4	338	0.00	30.089 
09:15	28.5	28.5	28.5	88	25.4	1	4	0	0.00	30.092 
09:20	28.4	28.4	28.4	88	25.3	2	7	338	0.00	30.092 
09:25	28.4	28.4	28.4	88	25.3	3	7	338	0.00	30.092 
09:30	28.4	28.4	28.4	88	25.3	2	5	338	0.00	30.100 
09:35	28.4	28.4	28.4	88	25.3	2	4	338	0.00	30.100 
09:40	28.7	28.7	28.7	88	25.6	1	4	0	0.00	30.100 
09:45	28.8	28.8	28.8	88	25.7	1	5	292	0.00	30.104 
09:50	29.1	29.1	29.1	88	26.0	1	4	292	0.00	30.104 
09:55	29.0	29.0	29.0	87	25.6	2	6	0	0.00	30.104 
10:00	29.0	29.0	29.0	87	25.6	2	4	338	0.00	30.109 
10:05	29.0	29.0	29.0	87	25.6	2	6	0	0.00	30.109 
10:10	29.1	29.1	29.1	87	25.7	2	5	338	0.00	30.109 
10:15	29.3	29.3	29.3	87	25.9	2	5	338	0.00	30.118 
10:20	29.3	29.3	29.3	87	25.9	2	5	338	0.00	30.118 
10:25	29.3	29.3	29.3	87	25.9	2	5	338	0.00	30.118 
10:30	29.4	29.4	29.4	86	25.7	2	5	338	0.00	30.125 
10:35	29.5	29.5	29.5	86	25.8	2	4	292	0.00	30.125 
10:40	29.5	29.5	29.5	86	25.8	1	5	0	0.00	30.125 
10:45	29.8	29.8	29.8	86	26.1	1	3	338	0.00	30.124 
10:50	30.1	30.1	30.1	86	26.4	1	3	0	0.00	30.124 
10:55	30.4	30.4	30.4	86	26.7	1	4	0	0.00	30.124 
11:00	30.4	30.4	30.4	85	26.4	1	3	292	0.00	30.124 
11:05	30.7	30.7	30.7	85	26.7	1	4	270	0.00	30.124 
11:10	30.7	30.7	30.7	85	26.7	1	3	315	0.00	30.124 
11:15	30.7	30.7	30.7	85	26.7	2	5	315	0.00	30.133 
11:20	30.7	30.7	30.7	85	26.7	1	5	270	0.00	30.133 
11:25	30.7	30.7	30.7	84	26.4	2	4	338	0.00	30.133 
11:30	30.9	30.9	30.9	84	26.6	1	3	338	0.00	30.138 
11:35	31.2	31.2	31.2	84	26.9	1	4	292	0.00	30.138 
11:40	31.2	31.2	31.2	84	26.9	1	3	315	0.00	30.138 
11:45	31.3	31.3	31.3	83	26.7	2	3	292	0.00	30.147 
11:50	31.2	31.2	31.2	83	26.6	2	5	292	0.00	30.147 
11:55	31.2	31.2	31.2	83	26.6	2	3	292	0.00	30.147 
12:00	31.5	31.5	31.5	84	27.2	1	3	315	0.00	30.153 
12:05	31.3	31.3	31.3	83	26.7	2	4	315	0.00	30.153 
12:10	31.3	31.3	31.3	83	26.7	2	5	315	0.00	30.153 
12:15	31.3	31.3	31.3	83	26.7	1	3	292	0.01	30.167 
12:20	31.5	31.5	31.5	83	26.9	1	3	338	0.00	30.167 
12:25	31.5	31.5	31.5	83	26.9	2	4	315	0.00	30.167 
12:30	31.5	31.5	31.5	83	26.9	1	4	315	0.00	30.166 
12:35	31.8	31.8	31.8	82	26.9	1	3	315	0.01	30.166 
12:40	31.9	31.9	31.9	82	27.0	1	4	338	0.00	30.166 
12:45	32.1	32.1	32.1	82	27.2	1	4	248	0.01	30.167 
12:50	32.2	32.2	32.2	82	27.3	1	3	315	0.00	30.167 
12:55	32.2	32.2	32.2	82	27.3	1	3	315	0.00	30.167 
13:00	32.4	32.4	32.4	81	27.2	1	3	315	0.01	30.166 
13:05	32.7	32.7	32.7	82	27.8	0	2	315	0.00	30.166 
13:10	32.7	32.7	32.7	81	27.5	0	2	315	0.01	30.166 
13:15	32.5	32.5	32.5	81	27.3	1	3	315	0.01	30.167 
13:20	32.2	32.2	32.2	82	27.3	1	3	292	0.00	30.167 
13:25	32.4	32.4	32.4	82	27.5	0	2	315	0.01	30.167 
13:30	32.5	32.5	32.5	82	27.6	0	3	315	0.01	30.164 
13:35	32.5	32.5	32.5	82	27.6	0	2	315	0.01	30.164 
13:40	32.4	32.4	32.4	82	27.5	1	3	315	0.00	30.164 
13:45	32.2	32.2	32.2	82	27.3	0	2	315	0.01	30.170 
13:50	32.2	32.2	32.2	82	27.3	1	2	315	0.01	30.170 
13:55	32.2	32.2	32.2	82	27.3	1	2	315	0.00	30.170 
14:00	32.2	32.2	32.2	82	27.3	1	3	315	0.01	30.170 
14:05	32.1	32.1	32.1	81	26.9	1	3	270	0.01	30.170 
14:10	32.2	32.2	32.2	82	27.3	0	2	270	0.00	30.170 
14:15	32.4	32.4	32.4	81	27.2	1	2	270	0.01	30.171 
14:20	32.1	32.1	32.1	81	26.9	2	4	270	0.01	30.171 
14:25	32.1	32.1	32.1	80	26.6	1	3	315	0.00	30.171 
14:30	32.4	32.4	32.4	81	27.2	1	3	292	0.01	30.171 
14:35	32.5	32.5	32.5	80	27.0	1	3	292	0.00	30.171 
14:40	32.7	32.7	32.7	80	27.2	1	2	292	0.01	30.171 
14:45	32.7	32.7	32.7	79	26.9	1	2	292	0.00	30.170 
14:50	32.8	32.8	32.8	80	27.3	1	3	292	0.01	30.170 
14:55	32.8	32.8	32.8	80	27.3	1	2	270	0.00	30.170 
15:00	32.7	32.7	32.7	79	26.9	1	3	270	0.01	30.170 
15:05	32.7	32.7	32.7	80	27.2	1	2	270	0.00	30.170 
15:10	32.8	32.8	32.8	79	27.0	1	4	270	0.01	30.170 
15:15	32.9	32.9	32.9	79	27.1	1	4	248	0.00	30.169 
15:20	32.8	32.8	32.8	79	27.0	1	4	248	0.01	30.169 
15:25	32.8	32.8	32.8	78	26.7	1	2	315	0.00	30.169 
15:30	32.8	32.8	32.8	78	26.7	1	3	338	0.00	30.179 
15:35	32.7	32.7	32.7	78	26.6	1	4	338	0.01	30.179 
15:40	32.5	32.5	32.5	78	26.4	1	3	338	0.00	30.179 
15:45	32.5	32.5	32.5	78	26.4	1	4	338	0.01	30.182 
15:50	32.5	32.5	32.5	78	26.4	1	4	338	0.00	30.182 
15:55	32.7	32.7	32.7	78	26.6	1	3	270	0.00	30.182 
16:00	32.7	32.7	32.7	77	26.3	1	5	315	0.01	30.183 
16:05	32.8	32.8	32.8	78	26.7	0	2	315	0.00	30.183 
16:10	32.9	32.9	32.9	77	26.5	1	3	315	0.01	30.183 
16:15	32.8	32.8	32.8	77	26.4	1	4	248	0.00	30.187 
16:20	32.5	32.5	32.5	77	26.1	1	3	248	0.00	30.187 
16:25	32.5	32.5	32.5	77	26.1	2	5	0	0.00	30.187 
16:30	32.5	32.5	32.5	77	26.1	1	4	0	0.01	30.193 
16:35	32.7	32.7	32.7	77	26.3	1	3	248	0.00	30.193 
16:40	32.5	32.5	32.5	77	26.1	1	4	315	0.00	30.193 
16:45	32.4	32.4	32.4	77	26.0	1	3	292	0.01	30.202 
16:50	32.4	32.4	32.4	77	26.0	1	3	315	0.00	30.202 
16:55	32.4	32.4	32.4	77	26.0	1	4	248	0.00	30.202 
17:00	32.4	32.4	32.4	77	26.0	1	3	248	0.00	30.207 
17:05	32.5	32.5	32.5	77	26.1	0	3	0	0.00	30.207 
17:10	32.5	32.5	32.5	77	26.1	0	3	0	0.00	30.207 
17:15	32.5	32.5	32.5	77	26.1	1	3	315	0.00	30.207 
17:20	32.5	32.5	32.5	77	26.1	0	2	315	0.01	30.207 
17:25	32.4	32.4	32.4	77	26.0	1	2	315	0.00	30.207 
17:30	32.4	32.4	32.4	77	26.0	1	3	315	0.00	30.206 
17:35	32.4	32.4	32.4	77	26.0	1	2	315	0.00	30.206 
17:40	32.5	32.5	32.5	77	26.1	0	3	315	0.00	30.206 
17:45	32.5	32.5	32.5	77	26.1	1	2	315	0.00	30.210 
17:50	32.4	32.4	32.4	77	26.0	1	3	270	0.00	30.210 
17:55	32.4	32.4	32.4	77	26.0	0	2	270	0.00	30.210 
18:00	32.4	32.4	32.4	77	26.0	0	2	315	0.00	30.214 
18:05	32.4	32.4	32.4	76	25.7	0	2	315	0.00	30.214 
18:10	32.2	32.2	32.2	77	25.8	0	2	315	0.00	30.214 
18:15	32.2	32.2	32.2	77	25.8	0	2	315	0.00	30.217 
18:20	32.2	32.2	32.2	76	25.5	0	2	315	0.00	30.217 
18:25	32.2	32.2	32.2	76	25.5	1	3	315	0.00	30.217 
18:30	32.2	32.2	32.2	77	25.8	0	1	315	0.01	30.221 
18:35	32.1	32.1	32.1	77	25.7	0	1	315	0.00	30.221 
18:40	32.1	32.1	32.1	77	25.7	0	1	315	0.00	30.221 
18:45	32.1	32.1	32.1	77	25.7	0	0	---	0.00	30.231 
18:50	32.1	32.1	32.1	77	25.7	0	0	---	0.00	30.231 
18:55	31.9	31.9	31.9	77	25.5	0	1	315	0.00	30.231 
19:00	31.9	31.9	31.9	77	25.5	0	2	315	0.00	30.234 
19:05	31.9	31.9	31.9	77	25.5	0	2	315	0.00	30.234 
19:10	31.9	31.9	31.9	77	25.5	0	3	315	0.00	30.234 
19:15	31.9	31.9	31.9	77	25.5	0	3	270	0.00	30.242 
19:20	31.9	31.9	31.9	77	25.5	0	2	270	0.00	30.242 
19:25	31.9	31.9	31.9	78	25.8	0	0	---	0.00	30.242 
19:30	31.8	31.8	31.8	78	25.7	0	0	---	0.00	30.242 
19:35	31.8	31.8	31.8	78	25.7	0	0	---	0.00	30.242 
19:40	31.6	31.6	31.6	78	25.5	0	0	---	0.00	30.242 
19:45	31.6	31.6	31.6	79	25.8	0	0	---	0.00	30.241 
19:50	31.6	31.6	31.6	80	26.2	0	0	---	0.00	30.241 
19:55	31.5	31.5	31.5	80	26.1	0	0	---	0.00	30.241 
20:00	31.5	31.5	31.5	80	26.1	0	0	---	0.00	30.242 
20:05	31.5	31.5	31.5	81	26.4	0	0	---	0.00	30.242 
20:10	31.3	31.3	31.3	81	26.2	0	0	---	0.00	30.242 
20:15	31.5	31.5	31.5	81	26.4	0	0	---	0.00	30.247 
20:20	31.5	31.5	31.5	81	26.4	0	0	---	0.00	30.247 
20:25	31.5	31.5	31.5	81	26.4	0	0	---	0.00	30.247 
20:30	31.5	31.5	31.5	81	26.4	0	0	---	0.00	30.247 
20:35	31.3	31.3	31.3	81	26.2	0	0	---	0.00	30.247 
20:40	31.3	31.3	31.3	81	26.2	0	0	---	0.00	30.247 
20:45	31.3	31.3	31.3	81	26.2	0	0	---	0.00	30.248 
20:50	31.2	31.2	31.2	81	26.1	0	0	---	0.00	30.248 
20:55	31.2	31.2	31.2	81	26.1	0	0	---	0.00	30.248 
21:00	31.2	31.2	31.2	81	26.1	0	0	---	0.00	30.245 
21:05	31.2	31.2	31.2	82	26.4	0	0	---	0.00	30.245 
21:10	31.2	31.2	31.2	82	26.4	0	0	---	0.00	30.245 
21:15	31.2	31.2	31.2	82	26.4	0	0	---	0.00	30.247 
21:20	31.2	31.2	31.2	82	26.4	0	0	---	0.00	30.247 
21:25	31.0	31.0	31.0	83	26.5	0	0	---	0.00	30.247 
21:30	31.0	31.0	31.0	83	26.5	0	0	---	0.00	30.247 
21:35	31.0	31.0	31.0	83	26.5	0	0	---	0.00	30.247 
21:40	31.0	31.0	31.0	83	26.5	0	0	---	0.00	30.247 
21:45	31.0	31.0	31.0	83	26.5	0	0	---	0.00	30.249 
21:50	31.2	31.2	31.2	83	26.6	0	0	---	0.00	30.249 
21:55	31.2	31.2	31.2	83	26.6	0	0	---	0.00	30.249 
22:00	31.2	31.2	31.2	83	26.6	0	0	---	0.00	30.255 
22:05	31.2	31.2	31.2	83	26.6	0	0	---	0.00	30.255 
22:10	31.2	31.2	31.2	83	26.6	0	0	---	0.00	30.255 
22:15	31.2	31.2	31.2	83	26.6	0	0	---	0.00	30.256 
22:20	31.2	31.2	31.2	83	26.6	0	0	---	0.00	30.256 
22:25	31.2	31.2	31.2	83	26.6	0	0	---	0.00	30.256 
22:30	31.2	31.2	31.2	83	26.6	0	0	---	0.00	30.254 
22:35	31.2	31.2	31.2	83	26.6	0	0	---	0.00	30.254 
22:40	31.2	31.2	31.2	83	26.6	0	1	270	0.00	30.254 
22:45	31.2	31.2	31.2	83	26.6	0	0	---	0.00	30.251 
22:50	31.2	31.2	31.2	83	26.6	0	0	---	0.00	30.251 
22:55	31.2	31.2	31.2	83	26.6	0	0	---	0.00	30.251 
23:00	31.2	31.2	31.2	83	26.6	0	0	---	0.00	30.250 
23:05	31.2	31.2	31.2	83	26.6	0	0	---	0.00	30.250 
23:10	31.3	31.3	31.3	83	26.7	0	0	---	0.00	30.250 
23:15	31.3	31.3	31.3	83	26.7	0	0	---	0.00	30.247 
23:20	31.5	31.5	31.5	82	26.7	0	0	---	0.00	30.247 
23:25	31.5	31.5	31.5	82	26.7	0	0	---	0.00	30.247 
23:30	31.5	31.5	31.5	82	26.7	0	1	270	0.00	30.241 
23:35	31.6	31.6	31.6	82	26.7	0	1	270	0.00	30.241 
23:40	31.6	31.6	31.6	82	26.7	0	1	270	0.00	30.241 
23:45	31.8	31.8	31.8	81	26.6	0	0	---	0.00	30.242 
23:50	31.8	31.8	31.8	81	26.6	0	1	270	0.00	30.242 
23:55	31.8	31.8	31.8	81	26.6	0	2	270	0.00	30.242 

CoCoRaHS
IN-AL-39
A2 Web Hosting
Creative Commons License
GoDaddy
search engine by freefind advanced

loaded 2018-11-18 11:08:11 • last modified 2010-11-18 10:43:29
Privacy PolicyDisclaimer
• wx.awcolley.com is powered by PmWiki v.2002016 •
• all content (unless otherwise noted) © 2018 A W Colley